This is the latest recevied weather packets stored in our database for station/object SP8C-10. If no packets are shown the sender has not sent any weather packets the latest 10 day(s).
| Time | Temp. | Humidity | Pressure | Rain* | Wind** | Luminosity | Snow |
|---|---|---|---|---|---|---|---|
| 1788333140 | 25° C | 42% | 1021.6 hPa | - | - | - | - |
| 1788331340 | 23.89° C | 42% | 1021.5 hPa | - | - | - | - |
| 1788329540 | 23.33° C | 41% | 1021.4 hPa | - | - | - | - |
| 1788327740 | 22.78° C | 40% | 1021.3 hPa | - | - | - | - |
| 1788325940 | 22.78° C | 39% | 1021.3 hPa | - | - | - | - |
| 1788293537 | 28.33° C | 29% | 1020 hPa | - | - | - | - |
| 1788291737 | 29.44° C | 29% | 1020 hPa | - | - | - | - |
| 1788288136 | 30.56° C | 28% | 1020 hPa | - | - | - | - |
| 1788282735 | 32.78° C | 27% | 1019.2 hPa | - | - | - | - |
| 1788280935 | 33.33° C | 27% | 1018.8 hPa | - | - | - | - |
| 1788279135 | 33.89° C | 26% | 1018.7 hPa | - | - | - | - |
| 1788277335 | 33.89° C | 26% | 1018.7 hPa | - | - | - | - |
| 1788275542 | 33.89° C | 27% | 1018.6 hPa | - | - | - | - |
| 1788271941 | 32.78° C | 28% | 1018.5 hPa | - | - | - | - |
| 1788270141 | 33.33° C | 27% | 1018.4 hPa | - | - | - | - |
| 1788268341 | 33.33° C | 28% | 1018.2 hPa | - | - | - | - |
| 1788266541 | 32.78° C | 29% | 1018 hPa | - | - | - | - |
| 1788264740 | 32.22° C | 29% | 1018 hPa | - | - | - | - |
| 1788262940 | 32.22° C | 31% | 1018 hPa | - | - | - | - |
| 1788261140 | 32.22° C | 33% | 1017.7 hPa | - | - | - | - |
| 1788259340 | 31.67° C | 33% | 1017.5 hPa | - | - | - | - |
| 1788257540 | 31.11° C | 35% | 1017.6 hPa | - | - | - | - |
| 1788255740 | 30° C | 36% | 1017.4 hPa | - | - | - | - |
| 1788253939 | 30° C | 37% | 1017.2 hPa | - | - | - | - |
| 1788252139 | 29.44° C | 39% | 1017.2 hPa | - | - | - | - |
* Rain since midnight (hover to see other rain measurements)
** Current wind speed in m/s (hover to see current wind gust speed)